Champlain, Virginia
Current Conditions -  °F | °C
As of 7:15 AM on Sunday 21 Dec 2014 (Local Time) from KXSA Reporting Station
Overcast Overcast  
Wind Chill: 34°   Ceiling: 7000
Heat Index: 34°   Visibility: 10mi
Dew Point: 27°   Wind: 0mph
Humidity: 77%   Direction: NA
Pressure: 30.34"   Gusts: NA
Location:  38.01°N, 76.99°W
Report Text: KXSA 211215Z AUTO 00000KT 10SM OVC070 01/M03 A3034 RMK AO2 T00091027
Loading
Personal Weather Stations






























Interactive Weather Map New forecast layout! Learn more

10-Day Weather Forecast

Advertisements
Track Severe Weather on mobile